sensor_id;sensor_type;location;lat;lon;timestamp;P1;durP1;ratioP1;P2;durP2;ratioP2
24901;SDS011;31328;51.402;0.016;2023-04-03T00:00:55;7.90;;;2.33;;
24901;SDS011;31328;51.402;0.016;2023-04-03T00:03:24;6.60;;;1.13;;
24901;SDS011;31328;51.402;0.016;2023-04-03T00:05:51;4.80;;;1.37;;
24901;SDS011;31328;51.402;0.016;2023-04-03T00:08:18;5.67;;;1.33;;
24901;SDS011;31328;51.402;0.016;2023-04-03T00:10:44;3.60;;;1.33;;
24901;SDS011;31328;51.402;0.016;2023-04-03T00:13:11;4.43;;;1.27;;
24901;SDS011;31328;51.402;0.016;2023-04-03T00:15:38;5.37;;;1.53;;
24901;SDS011;31328;51.402;0.016;2023-04-03T00:18:05;5.97;;;1.20;;
24901;SDS011;31328;51.402;0.016;2023-04-03T00:20:32;5.80;;;1.30;;
24901;SDS011;31328;51.402;0.016;2023-04-03T00:22:59;5.10;;;2.20;;
24901;SDS011;31328;51.402;0.016;2023-04-03T00:25:26;6.87;;;1.50;;
24901;SDS011;31328;51.402;0.016;2023-04-03T00:27:53;2.83;;;1.00;;
24901;SDS011;31328;51.402;0.016;2023-04-03T00:30:20;4.63;;;1.50;;
24901;SDS011;31328;51.402;0.016;2023-04-03T00:32:51;6.50;;;1.30;;
24901;SDS011;31328;51.402;0.016;2023-04-03T00:35:19;5.50;;;1.37;;
24901;SDS011;31328;51.402;0.016;2023-04-03T00:37:46;5.20;;;1.57;;
24901;SDS011;31328;51.402;0.016;2023-04-03T00:40:13;4.70;;;1.27;;
24901;SDS011;31328;51.402;0.016;2023-04-03T00:42:42;9.07;;;2.13;;
24901;SDS011;31328;51.402;0.016;2023-04-03T00:45:23;3.77;;;1.13;;
24901;SDS011;31328;51.402;0.016;2023-04-03T00:47:52;9.00;;;1.50;;
24901;SDS011;31328;51.402;0.016;2023-04-03T00:50:20;2.77;;;1.20;;
24901;SDS011;31328;51.402;0.016;2023-04-03T00:52:46;8.10;;;1.97;;
24901;SDS011;31328;51.402;0.016;2023-04-03T00:55:14;6.10;;;1.73;;
24901;SDS011;31328;51.402;0.016;2023-04-03T00:57:41;5.47;;;1.40;;
24901;SDS011;31328;51.402;0.016;2023-04-03T01:00:09;5.83;;;1.93;;
24901;SDS011;31328;51.402;0.016;2023-04-03T01:02:38;8.50;;;2.37;;
24901;SDS011;31328;51.402;0.016;2023-04-03T01:05:07;6.53;;;2.70;;
24901;SDS011;31328;51.402;0.016;2023-04-03T01:07:34;6.73;;;2.17;;
24901;SDS011;31328;51.402;0.016;2023-04-03T01:10:04;5.70;;;1.70;;
24901;SDS011;31328;51.402;0.016;2023-04-03T01:12:37;4.97;;;1.20;;
24901;SDS011;31328;51.402;0.016;2023-04-03T01:15:06;5.80;;;1.87;;
24901;SDS011;31328;51.402;0.016;2023-04-03T01:25:29;4.83;;;1.40;;
24901;SDS011;31328;51.402;0.016;2023-04-03T01:27:57;7.07;;;2.23;;
24901;SDS011;31328;51.402;0.016;2023-04-03T01:30:25;3.77;;;1.40;;
24901;SDS011;31328;51.402;0.016;2023-04-03T01:32:58;8.35;;;1.48;;
24901;SDS011;31328;51.402;0.016;2023-04-03T01:35:24;5.27;;;1.33;;
24901;SDS011;31328;51.402;0.016;2023-04-03T01:37:51;7.30;;;1.93;;
24901;SDS011;31328;51.402;0.016;2023-04-03T01:40:18;9.90;;;3.40;;
24901;SDS011;31328;51.402;0.016;2023-04-03T01:42:46;5.23;;;1.43;;
24901;SDS011;31328;51.402;0.016;2023-04-03T01:45:12;4.77;;;2.00;;
24901;SDS011;31328;51.402;0.016;2023-04-03T01:47:38;6.73;;;1.80;;
24901;SDS011;31328;51.402;0.016;2023-04-03T01:50:05;4.63;;;1.30;;
24901;SDS011;31328;51.402;0.016;2023-04-03T01:52:33;5.10;;;1.70;;
24901;SDS011;31328;51.402;0.016;2023-04-03T01:55:00;5.97;;;1.60;;
24901;SDS011;31328;51.402;0.016;2023-04-03T01:57:26;6.80;;;1.53;;
24901;SDS011;31328;51.402;0.016;2023-04-03T01:59:52;5.60;;;1.33;;
24901;SDS011;31328;51.402;0.016;2023-04-03T02:02:19;5.40;;;1.57;;
24901;SDS011;31328;51.402;0.016;2023-04-03T02:04:45;5.93;;;1.50;;
24901;SDS011;31328;51.402;0.016;2023-04-03T02:07:12;5.73;;;1.97;;
24901;SDS011;31328;51.402;0.016;2023-04-03T02:09:38;7.90;;;1.93;;
24901;SDS011;31328;51.402;0.016;2023-04-03T02:12:04;4.97;;;1.67;;
24901;SDS011;31328;51.402;0.016;2023-04-03T02:14:32;6.70;;;2.20;;
24901;SDS011;31328;51.402;0.016;2023-04-03T02:17:00;6.27;;;2.27;;
24901;SDS011;31328;51.402;0.016;2023-04-03T02:19:30;5.00;;;1.33;;
24901;SDS011;31328;51.402;0.016;2023-04-03T02:21:57;5.00;;;1.63;;
24901;SDS011;31328;51.402;0.016;2023-04-03T02:24:23;9.13;;;2.13;;
24901;SDS011;31328;51.402;0.016;2023-04-03T02:26:50;10.63;;;1.93;;
24901;SDS011;31328;51.402;0.016;2023-04-03T02:29:16;8.17;;;1.57;;
24901;SDS011;31328;51.402;0.016;2023-04-03T02:31:43;4.57;;;1.50;;
24901;SDS011;31328;51.402;0.016;2023-04-03T02:34:09;6.07;;;1.80;;
24901;SDS011;31328;51.402;0.016;2023-04-03T02:36:36;6.37;;;1.70;;
24901;SDS011;31328;51.402;0.016;2023-04-03T02:39:06;4.00;;;1.40;;
24901;SDS011;31328;51.402;0.016;2023-04-03T02:41:34;6.97;;;1.80;;
24901;SDS011;31328;51.402;0.016;2023-04-03T02:44:03;6.13;;;1.87;;
24901;SDS011;31328;51.402;0.016;2023-04-03T02:46:31;6.93;;;2.50;;
24901;SDS011;31328;51.402;0.016;2023-04-03T02:48:58;3.57;;;1.37;;
24901;SDS011;31328;51.402;0.016;2023-04-03T02:51:24;4.40;;;1.33;;
24901;SDS011;31328;51.402;0.016;2023-04-03T02:53:52;3.23;;;1.53;;
24901;SDS011;31328;51.402;0.016;2023-04-03T02:56:22;7.27;;;1.83;;
24901;SDS011;31328;51.402;0.016;2023-04-03T02:58:49;6.23;;;1.57;;
24901;SDS011;31328;51.402;0.016;2023-04-03T03:01:17;8.30;;;1.93;;
24901;SDS011;31328;51.402;0.016;2023-04-03T03:03:43;8.90;;;1.57;;
24901;SDS011;31328;51.402;0.016;2023-04-03T03:06:11;6.03;;;1.40;;
24901;SDS011;31328;51.402;0.016;2023-04-03T03:08:39;5.60;;;1.60;;
24901;SDS011;31328;51.402;0.016;2023-04-03T03:11:07;6.17;;;1.73;;
24901;SDS011;31328;51.402;0.016;2023-04-03T03:13:35;3.30;;;1.37;;
24901;SDS011;31328;51.402;0.016;2023-04-03T03:16:01;10.03;;;3.10;;
24901;SDS011;31328;51.402;0.016;2023-04-03T03:18:28;5.60;;;1.77;;
24901;SDS011;31328;51.402;0.016;2023-04-03T03:20:55;4.40;;;1.60;;
24901;SDS011;31328;51.402;0.016;2023-04-03T03:23:23;6.70;;;2.20;;
24901;SDS011;31328;51.402;0.016;2023-04-03T03:25:54;4.67;;;1.77;;
24901;SDS011;31328;51.402;0.016;2023-04-03T03:28:22;4.93;;;1.60;;
24901;SDS011;31328;51.402;0.016;2023-04-03T03:30:49;4.67;;;1.37;;
24901;SDS011;31328;51.402;0.016;2023-04-03T03:33:17;8.37;;;2.70;;
24901;SDS011;31328;51.402;0.016;2023-04-03T03:35:44;4.10;;;1.20;;
24901;SDS011;31328;51.402;0.016;2023-04-03T03:38:11;3.93;;;1.23;;
24901;SDS011;31328;51.402;0.016;2023-04-03T03:40:37;5.33;;;1.73;;
24901;SDS011;31328;51.402;0.016;2023-04-03T03:43:04;6.80;;;2.00;;
24901;SDS011;31328;51.402;0.016;2023-04-03T03:45:31;3.13;;;1.70;;
24901;SDS011;31328;51.402;0.016;2023-04-03T03:47:57;4.60;;;1.70;;
24901;SDS011;31328;51.402;0.016;2023-04-03T03:50:24;5.53;;;1.10;;
24901;SDS011;31328;51.402;0.016;2023-04-03T03:52:51;3.83;;;1.50;;
24901;SDS011;31328;51.402;0.016;2023-04-03T03:55:17;5.13;;;1.80;;
24901;SDS011;31328;51.402;0.016;2023-04-03T03:57:45;4.20;;;1.37;;
24901;SDS011;31328;51.402;0.016;2023-04-03T04:00:12;7.73;;;1.53;;
24901;SDS011;31328;51.402;0.016;2023-04-03T04:02:43;4.13;;;1.70;;
24901;SDS011;31328;51.402;0.016;2023-04-03T04:05:14;3.63;;;1.20;;
24901;SDS011;31328;51.402;0.016;2023-04-03T04:07:40;4.00;;;1.40;;
24901;SDS011;31328;51.402;0.016;2023-04-03T04:10:07;7.10;;;2.00;;
24901;SDS011;31328;51.402;0.016;2023-04-03T04:12:35;6.93;;;1.70;;
24901;SDS011;31328;51.402;0.016;2023-04-03T04:15:02;9.73;;;1.93;;
24901;SDS011;31328;51.402;0.016;2023-04-03T04:17:29;5.87;;;1.90;;
24901;SDS011;31328;51.402;0.016;2023-04-03T04:19:56;3.87;;;1.47;;
24901;SDS011;31328;51.402;0.016;2023-04-03T04:22:23;6.63;;;2.10;;
24901;SDS011;31328;51.402;0.016;2023-04-03T04:24:49;5.83;;;3.00;;
24901;SDS011;31328;51.402;0.016;2023-04-03T04:27:15;5.07;;;2.00;;
24901;SDS011;31328;51.402;0.016;2023-04-03T04:29:42;3.90;;;2.30;;
24901;SDS011;31328;51.402;0.016;2023-04-03T04:32:08;4.77;;;1.70;;
24901;SDS011;31328;51.402;0.016;2023-04-03T04:34:35;5.67;;;1.90;;
24901;SDS011;31328;51.402;0.016;2023-04-03T04:37:01;3.73;;;1.73;;
24901;SDS011;31328;51.402;0.016;2023-04-03T04:39:28;6.90;;;1.60;;
24901;SDS011;31328;51.402;0.016;2023-04-03T04:41:57;10.57;;;2.80;;
24901;SDS011;31328;51.402;0.016;2023-04-03T04:44:25;6.30;;;1.87;;
24901;SDS011;31328;51.402;0.016;2023-04-03T04:46:52;5.63;;;1.97;;
24901;SDS011;31328;51.402;0.016;2023-04-03T04:49:20;4.80;;;1.67;;
24901;SDS011;31328;51.402;0.016;2023-04-03T04:51:46;5.43;;;1.70;;
24901;SDS011;31328;51.402;0.016;2023-04-03T04:54:13;7.77;;;1.93;;
24901;SDS011;31328;51.402;0.016;2023-04-03T04:56:41;7.40;;;1.80;;
24901;SDS011;31328;51.402;0.016;2023-04-03T04:59:08;5.17;;;2.00;;
24901;SDS011;31328;51.402;0.016;2023-04-03T05:01:34;7.43;;;2.00;;
24901;SDS011;31328;51.402;0.016;2023-04-03T05:04:06;8.07;;;2.40;;
24901;SDS011;31328;51.402;0.016;2023-04-03T05:06:33;5.60;;;2.20;;
24901;SDS011;31328;51.402;0.016;2023-04-03T05:09:02;4.97;;;2.40;;
24901;SDS011;31328;51.402;0.016;2023-04-03T05:11:29;7.27;;;2.33;;
24901;SDS011;31328;51.402;0.016;2023-04-03T05:13:56;6.23;;;3.00;;
24901;SDS011;31328;51.402;0.016;2023-04-03T05:16:23;6.33;;;3.30;;
24901;SDS011;31328;51.402;0.016;2023-04-03T05:18:51;4.63;;;2.33;;
24901;SDS011;31328;51.402;0.016;2023-04-03T05:21:20;9.83;;;2.40;;
24901;SDS011;31328;51.402;0.016;2023-04-03T05:23:50;5.53;;;2.07;;
24901;SDS011;31328;51.402;0.016;2023-04-03T05:26:17;6.90;;;2.37;;
24901;SDS011;31328;51.402;0.016;2023-04-03T05:28:47;4.97;;;2.10;;
24901;SDS011;31328;51.402;0.016;2023-04-03T05:31:14;6.23;;;2.50;;
24901;SDS011;31328;51.402;0.016;2023-04-03T05:33:41;5.27;;;1.80;;
24901;SDS011;31328;51.402;0.016;2023-04-03T05:36:13;4.07;;;2.30;;
24901;SDS011;31328;51.402;0.016;2023-04-03T05:38:44;8.83;;;3.23;;
24901;SDS011;31328;51.402;0.016;2023-04-03T05:41:11;8.13;;;2.60;;
24901;SDS011;31328;51.402;0.016;2023-04-03T05:43:38;8.47;;;2.03;;
24901;SDS011;31328;51.402;0.016;2023-04-03T05:46:10;7.10;;;1.83;;
24901;SDS011;31328;51.402;0.016;2023-04-03T05:48:39;4.90;;;2.03;;
24901;SDS011;31328;51.402;0.016;2023-04-03T05:51:06;7.50;;;2.57;;
24901;SDS011;31328;51.402;0.016;2023-04-03T05:53:39;9.67;;;2.50;;
24901;SDS011;31328;51.402;0.016;2023-04-03T05:56:06;6.13;;;2.00;;
24901;SDS011;31328;51.402;0.016;2023-04-03T05:58:38;5.93;;;2.40;;
24901;SDS011;31328;51.402;0.016;2023-04-03T06:01:04;6.47;;;2.60;;
24901;SDS011;31328;51.402;0.016;2023-04-03T06:03:31;5.27;;;2.03;;
24901;SDS011;31328;51.402;0.016;2023-04-03T06:05:58;6.43;;;2.80;;
24901;SDS011;31328;51.402;0.016;2023-04-03T06:08:24;5.40;;;2.30;;
24901;SDS011;31328;51.402;0.016;2023-04-03T06:10:51;5.80;;;1.93;;
24901;SDS011;31328;51.402;0.016;2023-04-03T06:13:18;6.33;;;2.97;;
24901;SDS011;31328;51.402;0.016;2023-04-03T06:15:44;4.63;;;1.90;;
24901;SDS011;31328;51.402;0.016;2023-04-03T06:18:10;7.30;;;2.03;;
24901;SDS011;31328;51.402;0.016;2023-04-03T06:20:37;4.50;;;2.40;;
24901;SDS011;31328;51.402;0.016;2023-04-03T06:23:03;8.37;;;2.60;;
24901;SDS011;31328;51.402;0.016;2023-04-03T06:25:30;4.23;;;2.07;;
24901;SDS011;31328;51.402;0.016;2023-04-03T06:27:57;8.27;;;3.37;;
24901;SDS011;31328;51.402;0.016;2023-04-03T06:30:23;7.13;;;2.53;;
24901;SDS011;31328;51.402;0.016;2023-04-03T06:32:50;6.93;;;2.20;;
24901;SDS011;31328;51.402;0.016;2023-04-03T06:35:16;4.37;;;1.97;;
24901;SDS011;31328;51.402;0.016;2023-04-03T06:37:43;9.93;;;3.03;;
24901;SDS011;31328;51.402;0.016;2023-04-03T06:40:18;5.60;;;2.07;;
24901;SDS011;31328;51.402;0.016;2023-04-03T06:42:47;9.33;;;3.37;;
24901;SDS011;31328;51.402;0.016;2023-04-03T06:45:13;6.83;;;2.80;;
24901;SDS011;31328;51.402;0.016;2023-04-03T06:47:40;4.33;;;2.27;;
24901;SDS011;31328;51.402;0.016;2023-04-03T06:50:06;7.40;;;2.80;;
24901;SDS011;31328;51.402;0.016;2023-04-03T06:52:34;9.87;;;3.50;;
24901;SDS011;31328;51.402;0.016;2023-04-03T06:55:00;5.40;;;2.10;;
24901;SDS011;31328;51.402;0.016;2023-04-03T06:57:27;6.77;;;2.37;;
24901;SDS011;31328;51.402;0.016;2023-04-03T06:59:53;8.70;;;3.03;;
24901;SDS011;31328;51.402;0.016;2023-04-03T07:02:20;6.17;;;2.40;;
24901;SDS011;31328;51.402;0.016;2023-04-03T07:04:46;6.27;;;2.20;;
24901;SDS011;31328;51.402;0.016;2023-04-03T07:07:13;9.67;;;3.60;;
24901;SDS011;31328;51.402;0.016;2023-04-03T07:09:39;5.83;;;2.60;;
24901;SDS011;31328;51.402;0.016;2023-04-03T07:12:06;7.10;;;2.80;;
24901;SDS011;31328;51.402;0.016;2023-04-03T07:14:32;8.07;;;2.60;;
24901;SDS011;31328;51.402;0.016;2023-04-03T07:16:58;7.43;;;2.50;;
24901;SDS011;31328;51.402;0.016;2023-04-03T07:19:24;6.23;;;3.07;;
24901;SDS011;31328;51.402;0.016;2023-04-03T07:21:53;5.73;;;2.77;;
24901;SDS011;31328;51.402;0.016;2023-04-03T07:24:20;9.27;;;3.23;;
24901;SDS011;31328;51.402;0.016;2023-04-03T07:26:50;6.67;;;2.63;;
24901;SDS011;31328;51.402;0.016;2023-04-03T07:29:18;8.40;;;3.13;;
24901;SDS011;31328;51.402;0.016;2023-04-03T07:31:45;6.60;;;2.30;;
24901;SDS011;31328;51.402;0.016;2023-04-03T07:34:12;6.97;;;2.53;;
24901;SDS011;31328;51.402;0.016;2023-04-03T07:36:39;9.87;;;3.37;;
24901;SDS011;31328;51.402;0.016;2023-04-03T07:39:05;8.90;;;3.57;;
24901;SDS011;31328;51.402;0.016;2023-04-03T07:41:32;8.63;;;2.90;;
24901;SDS011;31328;51.402;0.016;2023-04-03T07:43:59;5.90;;;2.23;;
24901;SDS011;31328;51.402;0.016;2023-04-03T07:46:26;9.83;;;3.00;;
24901;SDS011;31328;51.402;0.016;2023-04-03T07:48:52;9.80;;;4.40;;
24901;SDS011;31328;51.402;0.016;2023-04-03T07:51:19;8.97;;;3.57;;
24901;SDS011;31328;51.402;0.016;2023-04-03T07:53:46;9.50;;;3.13;;
24901;SDS011;31328;51.402;0.016;2023-04-03T07:56:12;9.07;;;3.20;;
24901;SDS011;31328;51.402;0.016;2023-04-03T07:58:38;13.73;;;4.40;;
24901;SDS011;31328;51.402;0.016;2023-04-03T08:01:05;11.63;;;3.53;;
24901;SDS011;31328;51.402;0.016;2023-04-03T08:03:31;9.27;;;3.03;;
24901;SDS011;31328;51.402;0.016;2023-04-03T08:06:01;9.43;;;3.20;;
24901;SDS011;31328;51.402;0.016;2023-04-03T08:08:32;5.32;;;3.13;;
24901;SDS011;31328;51.402;0.016;2023-04-03T08:10:59;6.73;;;3.17;;
24901;SDS011;31328;51.402;0.016;2023-04-03T08:13:27;12.70;;;4.47;;
24901;SDS011;31328;51.402;0.016;2023-04-03T08:15:54;9.47;;;3.33;;
24901;SDS011;31328;51.402;0.016;2023-04-03T08:18:23;11.07;;;4.83;;
24901;SDS011;31328;51.402;0.016;2023-04-03T08:20:50;7.67;;;3.20;;
24901;SDS011;31328;51.402;0.016;2023-04-03T08:23:18;12.27;;;4.10;;
24901;SDS011;31328;51.402;0.016;2023-04-03T08:25:44;8.73;;;3.37;;
24901;SDS011;31328;51.402;0.016;2023-04-03T08:28:11;11.40;;;3.77;;
24901;SDS011;31328;51.402;0.016;2023-04-03T08:30:38;6.70;;;3.97;;
24901;SDS011;31328;51.402;0.016;2023-04-03T08:33:06;7.60;;;3.43;;
24901;SDS011;31328;51.402;0.016;2023-04-03T08:35:32;9.30;;;5.17;;
24901;SDS011;31328;51.402;0.016;2023-04-03T08:38:03;7.47;;;3.10;;
24901;SDS011;31328;51.402;0.016;2023-04-03T08:40:29;8.43;;;3.47;;
24901;SDS011;31328;51.402;0.016;2023-04-03T08:45:25;10.47;;;4.30;;
24901;SDS011;31328;51.402;0.016;2023-04-03T08:47:55;9.37;;;3.53;;
24901;SDS011;31328;51.402;0.016;2023-04-03T08:50:30;8.98;;;4.10;;
24901;SDS011;31328;51.402;0.016;2023-04-03T08:53:05;9.90;;;4.23;;
24901;SDS011;31328;51.402;0.016;2023-04-03T08:55:41;8.43;;;4.10;;
24901;SDS011;31328;51.402;0.016;2023-04-03T08:58:27;7.93;;;4.30;;
24901;SDS011;31328;51.402;0.016;2023-04-03T09:03:43;11.97;;;5.23;;
24901;SDS011;31328;51.402;0.016;2023-04-03T09:06:18;7.93;;;4.10;;
24901;SDS011;31328;51.402;0.016;2023-04-03T09:14:36;8.87;;;4.63;;
24901;SDS011;31328;51.402;0.016;2023-04-03T09:17:15;9.90;;;5.47;;
24901;SDS011;31328;51.402;0.016;2023-04-03T09:20:10;9.90;;;4.97;;
24901;SDS011;31328;51.402;0.016;2023-04-03T09:22:43;6.53;;;4.27;;
24901;SDS011;31328;51.402;0.016;2023-04-03T09:25:12;10.23;;;4.77;;
24901;SDS011;31328;51.402;0.016;2023-04-03T09:27:41;11.83;;;5.20;;
24901;SDS011;31328;51.402;0.016;2023-04-03T09:30:12;9.43;;;4.80;;
24901;SDS011;31328;51.402;0.016;2023-04-03T09:32:41;7.43;;;4.43;;
24901;SDS011;31328;51.402;0.016;2023-04-03T09:35:19;9.73;;;5.20;;
24901;SDS011;31328;51.402;0.016;2023-04-03T09:38:01;10.20;;;5.20;;
24901;SDS011;31328;51.402;0.016;2023-04-03T09:40:35;7.93;;;4.17;;
24901;SDS011;31328;51.402;0.016;2023-04-03T09:43:20;9.97;;;4.23;;
24901;SDS011;31328;51.402;0.016;2023-04-03T09:45:51;8.50;;;4.43;;
24901;SDS011;31328;51.402;0.016;2023-04-03T09:48:20;8.47;;;4.33;;
24901;SDS011;31328;51.402;0.016;2023-04-03T09:55:58;9.50;;;4.50;;
24901;SDS011;31328;51.402;0.016;2023-04-03T10:00:56;7.50;;;4.50;;
24901;SDS011;31328;51.402;0.016;2023-04-03T10:03:25;10.97;;;4.60;;
24901;SDS011;31328;51.402;0.016;2023-04-03T10:06:02;8.53;;;4.20;;
24901;SDS011;31328;51.402;0.016;2023-04-03T10:08:33;7.63;;;4.03;;
24901;SDS011;31328;51.402;0.016;2023-04-03T10:13:51;7.57;;;4.37;;
24901;SDS011;31328;51.402;0.016;2023-04-03T10:16:22;8.48;;;3.97;;
24901;SDS011;31328;51.402;0.016;2023-04-03T10:26:50;7.73;;;4.60;;
24901;SDS011;31328;51.402;0.016;2023-04-03T10:35:18;6.47;;;3.77;;
24901;SDS011;31328;51.402;0.016;2023-04-03T10:38:24;6.17;;;3.70;;
24901;SDS011;31328;51.402;0.016;2023-04-03T10:41:20;5.67;;;3.30;;
24901;SDS011;31328;51.402;0.016;2023-04-03T10:44:19;5.73;;;3.50;;
24901;SDS011;31328;51.402;0.016;2023-04-03T10:47:09;6.37;;;3.20;;
24901;SDS011;31328;51.402;0.016;2023-04-03T10:52:39;5.30;;;2.70;;
24901;SDS011;31328;51.402;0.016;2023-04-03T10:57:47;6.20;;;3.20;;
24901;SDS011;31328;51.402;0.016;2023-04-03T11:00:19;6.50;;;2.90;;
24901;SDS011;31328;51.402;0.016;2023-04-03T11:02:51;5.97;;;2.87;;
24901;SDS011;31328;51.402;0.016;2023-04-03T11:05:34;6.55;;;2.97;;
24901;SDS011;31328;51.402;0.016;2023-04-03T11:11:14;6.20;;;3.30;;
24901;SDS011;31328;51.402;0.016;2023-04-03T11:13:54;5.53;;;3.30;;
24901;SDS011;31328;51.402;0.016;2023-04-03T11:16:36;4.43;;;2.90;;
24901;SDS011;31328;51.402;0.016;2023-04-03T11:19:11;8.33;;;3.13;;
24901;SDS011;31328;51.402;0.016;2023-04-03T11:21:52;8.40;;;3.27;;
24901;SDS011;31328;51.402;0.016;2023-04-03T11:24:25;4.90;;;2.27;;
24901;SDS011;31328;51.402;0.016;2023-04-03T11:26:54;3.80;;;2.50;;
24901;SDS011;31328;51.402;0.016;2023-04-03T11:29:26;3.70;;;2.57;;
24901;SDS011;31328;51.402;0.016;2023-04-03T11:34:44;3.33;;;2.45;;
24901;SDS011;31328;51.402;0.016;2023-04-03T11:37:27;3.83;;;2.53;;
24901;SDS011;31328;51.402;0.016;2023-04-03T11:42:46;4.13;;;2.37;;
24901;SDS011;31328;51.402;0.016;2023-04-03T11:45:32;3.00;;;2.25;;
24901;SDS011;31328;51.402;0.016;2023-04-03T11:50:47;3.13;;;2.40;;
24901;SDS011;31328;51.402;0.016;2023-04-03T11:55:52;5.10;;;2.67;;
24901;SDS011;31328;51.402;0.016;2023-04-03T11:58:30;5.40;;;2.27;;
24901;SDS011;31328;51.402;0.016;2023-04-03T12:01:11;3.20;;;2.70;;
24901;SDS011;31328;51.402;0.016;2023-04-03T12:04:05;2.17;;;1.97;;
24901;SDS011;31328;51.402;0.016;2023-04-03T12:09:01;3.47;;;2.20;;
24901;SDS011;31328;51.402;0.016;2023-04-03T12:11:29;5.60;;;2.60;;
24901;SDS011;31328;51.402;0.016;2023-04-03T12:21:19;4.53;;;2.67;;
24901;SDS011;31328;51.402;0.016;2023-04-03T12:23:57;5.87;;;3.10;;
24901;SDS011;31328;51.402;0.016;2023-04-03T12:26:25;4.73;;;2.60;;
24901;SDS011;31328;51.402;0.016;2023-04-03T12:28:53;3.17;;;2.87;;
24901;SDS011;31328;51.402;0.016;2023-04-03T12:31:22;3.70;;;2.77;;
24901;SDS011;31328;51.402;0.016;2023-04-03T12:34:04;4.97;;;3.30;;
24901;SDS011;31328;51.402;0.016;2023-04-03T12:39:53;6.33;;;2.73;;
24901;SDS011;31328;51.402;0.016;2023-04-03T12:42:30;5.17;;;2.50;;
24901;SDS011;31328;51.402;0.016;2023-04-03T12:45:20;3.38;;;1.95;;
24901;SDS011;31328;51.402;0.016;2023-04-03T12:47:51;3.07;;;2.63;;
24901;SDS011;31328;51.402;0.016;2023-04-03T12:50:28;3.83;;;2.37;;
24901;SDS011;31328;51.402;0.016;2023-04-03T12:53:01;4.50;;;2.47;;
24901;SDS011;31328;51.402;0.016;2023-04-03T12:55:30;3.77;;;2.17;;
24901;SDS011;31328;51.402;0.016;2023-04-03T12:57:57;4.00;;;1.80;;
24901;SDS011;31328;51.402;0.016;2023-04-03T13:03:34;4.73;;;2.10;;
24901;SDS011;31328;51.402;0.016;2023-04-03T13:06:14;3.97;;;2.20;;
24901;SDS011;31328;51.402;0.016;2023-04-03T13:08:57;6.87;;;2.40;;
24901;SDS011;31328;51.402;0.016;2023-04-03T13:11:34;3.47;;;2.10;;
24901;SDS011;31328;51.402;0.016;2023-04-03T13:14:14;4.28;;;2.13;;
24901;SDS011;31328;51.402;0.016;2023-04-03T13:16:57;3.97;;;2.20;;
24901;SDS011;31328;51.402;0.016;2023-04-03T13:19:30;3.83;;;2.20;;
24901;SDS011;31328;51.402;0.016;2023-04-03T13:22:04;5.23;;;2.47;;
24901;SDS011;31328;51.402;0.016;2023-04-03T13:24:36;4.07;;;2.40;;
24901;SDS011;31328;51.402;0.016;2023-04-03T13:27:04;5.10;;;2.63;;
24901;SDS011;31328;51.402;0.016;2023-04-03T13:29:33;6.10;;;2.70;;
24901;SDS011;31328;51.402;0.016;2023-04-03T13:32:02;9.10;;;3.57;;
24901;SDS011;31328;51.402;0.016;2023-04-03T13:34:40;6.07;;;2.27;;
24901;SDS011;31328;51.402;0.016;2023-04-03T13:37:19;3.80;;;2.30;;
24901;SDS011;31328;51.402;0.016;2023-04-03T13:39:45;4.10;;;2.20;;
24901;SDS011;31328;51.402;0.016;2023-04-03T13:42:25;5.23;;;2.63;;
24901;SDS011;31328;51.402;0.016;2023-04-03T13:47:43;4.43;;;2.73;;
24901;SDS011;31328;51.402;0.016;2023-04-03T13:53:00;4.27;;;2.40;;
24901;SDS011;31328;51.402;0.016;2023-04-03T13:55:36;5.40;;;2.27;;
24901;SDS011;31328;51.402;0.016;2023-04-03T13:58:32;5.43;;;2.60;;
24901;SDS011;31328;51.402;0.016;2023-04-03T14:06:14;5.28;;;3.03;;
24901;SDS011;31328;51.402;0.016;2023-04-03T14:08:43;5.87;;;2.50;;
24901;SDS011;31328;51.402;0.016;2023-04-03T14:11:32;3.33;;;2.47;;
24901;SDS011;31328;51.402;0.016;2023-04-03T14:14:00;6.47;;;3.20;;
24901;SDS011;31328;51.402;0.016;2023-04-03T14:16:31;3.40;;;2.70;;
24901;SDS011;31328;51.402;0.016;2023-04-03T14:19:02;4.07;;;2.60;;
24901;SDS011;31328;51.402;0.016;2023-04-03T14:21:29;4.90;;;3.10;;
24901;SDS011;31328;51.402;0.016;2023-04-03T14:23:55;4.97;;;2.77;;
24901;SDS011;31328;51.402;0.016;2023-04-03T14:26:23;4.37;;;2.97;;
24901;SDS011;31328;51.402;0.016;2023-04-03T14:28:52;4.07;;;2.80;;
24901;SDS011;31328;51.402;0.016;2023-04-03T14:31:21;3.70;;;3.07;;
24901;SDS011;31328;51.402;0.016;2023-04-03T14:33:48;5.00;;;3.23;;
24901;SDS011;31328;51.402;0.016;2023-04-03T14:36:15;5.40;;;3.17;;
24901;SDS011;31328;51.402;0.016;2023-04-03T14:38:51;7.03;;;3.57;;
24901;SDS011;31328;51.402;0.016;2023-04-03T14:41:19;6.97;;;3.37;;
24901;SDS011;31328;51.402;0.016;2023-04-03T14:43:49;5.47;;;3.53;;
24901;SDS011;31328;51.402;0.016;2023-04-03T14:46:17;6.27;;;3.13;;
24901;SDS011;31328;51.402;0.016;2023-04-03T14:48:44;10.57;;;3.77;;
24901;SDS011;31328;51.402;0.016;2023-04-03T14:51:11;4.10;;;2.90;;
24901;SDS011;31328;51.402;0.016;2023-04-03T14:53:39;5.37;;;3.87;;
24901;SDS011;31328;51.402;0.016;2023-04-03T14:56:11;4.93;;;3.03;;
24901;SDS011;31328;51.402;0.016;2023-04-03T14:58:39;4.50;;;2.63;;
24901;SDS011;31328;51.402;0.016;2023-04-03T15:01:05;4.60;;;3.10;;
24901;SDS011;31328;51.402;0.016;2023-04-03T15:03:32;4.57;;;2.63;;
24901;SDS011;31328;51.402;0.016;2023-04-03T15:05:58;4.47;;;2.83;;
24901;SDS011;31328;51.402;0.016;2023-04-03T15:08:25;4.47;;;2.10;;
24901;SDS011;31328;51.402;0.016;2023-04-03T15:10:55;3.70;;;2.27;;
24901;SDS011;31328;51.402;0.016;2023-04-03T15:13:22;4.00;;;2.30;;
24901;SDS011;31328;51.402;0.016;2023-04-03T15:15:49;5.67;;;2.77;;
24901;SDS011;31328;51.402;0.016;2023-04-03T15:18:24;2.47;;;2.07;;
24901;SDS011;31328;51.402;0.016;2023-04-03T15:20:53;3.67;;;3.00;;
24901;SDS011;31328;51.402;0.016;2023-04-03T15:23:20;3.03;;;2.00;;
24901;SDS011;31328;51.402;0.016;2023-04-03T15:25:51;3.33;;;1.80;;
24901;SDS011;31328;51.402;0.016;2023-04-03T15:28:30;3.17;;;2.23;;
24901;SDS011;31328;51.402;0.016;2023-04-03T15:31:04;4.47;;;2.10;;
24901;SDS011;31328;51.402;0.016;2023-04-03T15:33:32;2.80;;;2.07;;
24901;SDS011;31328;51.402;0.016;2023-04-03T15:35:59;3.73;;;2.07;;
24901;SDS011;31328;51.402;0.016;2023-04-03T15:38:26;5.73;;;2.37;;
24901;SDS011;31328;51.402;0.016;2023-04-03T15:40:53;3.57;;;2.30;;
24901;SDS011;31328;51.402;0.016;2023-04-03T15:43:20;4.63;;;2.40;;
24901;SDS011;31328;51.402;0.016;2023-04-03T15:45:46;7.47;;;2.57;;
24901;SDS011;31328;51.402;0.016;2023-04-03T15:48:13;4.20;;;2.47;;
24901;SDS011;31328;51.402;0.016;2023-04-03T15:50:40;2.57;;;2.10;;
24901;SDS011;31328;51.402;0.016;2023-04-03T15:53:07;2.97;;;2.30;;
24901;SDS011;31328;51.402;0.016;2023-04-03T15:55:35;3.20;;;2.27;;
24901;SDS011;31328;51.402;0.016;2023-04-03T15:58:03;5.63;;;2.60;;
24901;SDS011;31328;51.402;0.016;2023-04-03T16:00:30;3.63;;;2.53;;
24901;SDS011;31328;51.402;0.016;2023-04-03T16:02:58;5.00;;;2.43;;
24901;SDS011;31328;51.402;0.016;2023-04-03T16:05:29;3.83;;;2.03;;
24901;SDS011;31328;51.402;0.016;2023-04-03T16:07:57;2.63;;;1.60;;
24901;SDS011;31328;51.402;0.016;2023-04-03T16:10:25;2.17;;;1.60;;
24901;SDS011;31328;51.402;0.016;2023-04-03T16:12:52;4.17;;;1.33;;
24901;SDS011;31328;51.402;0.016;2023-04-03T16:15:18;2.50;;;1.10;;
24901;SDS011;31328;51.402;0.016;2023-04-03T16:17:44;3.03;;;1.50;;
24901;SDS011;31328;51.402;0.016;2023-04-03T16:20:11;3.23;;;1.83;;
24901;SDS011;31328;51.402;0.016;2023-04-03T16:22:39;2.93;;;1.90;;
24901;SDS011;31328;51.402;0.016;2023-04-03T16:25:06;4.13;;;1.57;;
24901;SDS011;31328;51.402;0.016;2023-04-03T16:27:34;3.73;;;1.80;;
24901;SDS011;31328;51.402;0.016;2023-04-03T16:30:01;4.23;;;2.13;;
24901;SDS011;31328;51.402;0.016;2023-04-03T16:32:29;4.47;;;2.03;;